Time;durP1;ratioP1;P1;durP2;ratioP2;P2;SDS_P1;SDS_P2;PMS_P1;PMS_P2;Temp;Humidity;BMP_temperature;BMP_pressure;BME280_temperature;BME280_humidity;BME280_pressure;Samples;Min_cycle;Max_cycle;Signal;HPM_P1;HPM_P2
2022/04/02 00:00:28;;;;;;;39.75;25.45;;;0.10;99.90;;;;;;4929069;28;20322;-62
2022/04/02 00:02:56;;;;;;;37.75;25.75;;;0.10;99.90;;;;;;4930625;28;20108;-62
2022/04/02 00:05:25;;;;;;;39.40;23.90;;;0.10;99.90;;;;;;4931021;28;20165;-62
2022/04/02 00:07:52;;;;;;;38.15;25.58;;;0.10;99.90;;;;;;4928579;28;20343;-61
2022/04/02 00:10:19;;;;;;;35.60;24.98;;;0.10;99.90;;;;;;4928865;28;20350;-62
2022/04/02 00:12:46;;;;;;;36.78;23.45;;;0.10;99.90;;;;;;4931861;28;20108;-61
2022/04/02 00:15:12;;;;;;;;;;;0.10;99.90;;;;;;4931300;28;20171;-61
2022/04/02 00:17:39;;;;;;;35.43;24.10;;;0.10;99.90;;;;;;4928116;28;20779;-62
2022/04/02 00:20:07;;;;;;;41.10;25.77;;;0.00;99.90;;;;;;4931047;28;20295;-61
2022/04/02 00:22:34;;;;;;;41.15;25.13;;;0.00;99.90;;;;;;4928453;28;20311;-62
2022/04/02 00:25:00;;;;;;;;;;;0.00;99.90;;;;;;4930839;28;20050;-61
2022/04/02 00:27:27;;;;;;;40.58;26.17;;;0.00;99.90;;;;;;4928245;28;20211;-61
2022/04/02 00:29:54;;;;;;;40.35;25.73;;;0.00;99.90;;;;;;4927524;28;20324;-62
2022/04/02 00:32:21;;;;;;;37.33;24.85;;;0.00;99.90;;;;;;4930431;28;20299;-61
2022/04/02 00:34:53;;;;;;;39.83;26.10;;;0.00;99.90;;;;;;4931341;28;20184;-62
2022/04/02 00:37:20;;;;;;;35.22;24.85;;;-0.10;99.90;;;;;;4926148;28;20204;-61
2022/04/02 00:39:47;;;;;;;34.95;23.92;;;-0.10;99.90;;;;;;4927804;28;20228;-62
2022/04/02 00:42:14;;;;;;;35.17;24.67;;;-0.10;99.90;;;;;;4911027;28;20050;-62
2022/04/02 00:44:41;;;;;;;41.85;26.70;;;-0.10;99.90;;;;;;4929139;28;20172;-62
2022/04/02 00:47:08;;;;;;;37.03;24.13;;;-0.10;99.90;;;;;;4926437;28;20043;-61
2022/04/02 00:49:35;;;;;;;37.03;22.70;;;-0.10;99.90;;;;;;4929914;28;20784;-61
2022/04/02 00:52:02;;;;;;;40.70;24.75;;;-0.10;99.90;;;;;;4895608;28;20882;-62
2022/04/02 00:54:31;;;;;;;40.33;24.83;;;-0.10;99.90;;;;;;4909854;28;20239;-62
2022/04/02 00:56:58;;;;;;;36.67;24.15;;;-0.10;99.90;;;;;;4928253;28;20074;-62
2022/04/02 00:59:25;;;;;;;37.53;24.30;;;-0.10;99.90;;;;;;4930328;28;20351;-61
2022/04/02 01:01:52;;;;;;;37.20;25.35;;;-0.10;99.90;;;;;;4926222;28;20552;-62
2022/04/02 01:04:20;;;;;;;30.88;21.80;;;-0.10;99.90;;;;;;4927091;28;20343;-61
2022/04/02 01:06:50;;;;;;;35.05;22.98;;;-0.10;99.90;;;;;;4929687;28;20339;-62
2022/04/02 01:09:20;;;;;;;31.80;21.75;;;-0.10;99.90;;;;;;4928133;28;20591;-61
2022/04/02 01:11:52;;;;;;;32.13;22.52;;;-0.10;99.90;;;;;;4911535;28;20855;-62
2022/04/02 01:14:20;;;;;;;26.73;19.58;;;-0.10;99.90;;;;;;4927149;28;20735;-62
2022/04/02 01:16:50;;;;;;;26.40;19.52;;;-0.10;99.90;;;;;;4926075;28;20883;-62
2022/04/02 01:19:21;;;;;;;27.58;19.30;;;-0.10;99.90;;;;;;4925620;28;20863;-63
2022/04/02 01:21:56;;;;;;;30.92;20.63;;;-0.10;99.90;;;;;;4912323;28;20362;-61
2022/04/02 01:24:37;;;;;;;28.77;19.55;;;-0.10;99.90;;;;;;4925877;28;20050;-61
2022/04/02 01:27:05;;;;;;;27.65;18.52;;;-0.10;99.90;;;;;;4935998;28;20038;-62
2022/04/02 01:29:35;;;;;;;29.13;20.60;;;-0.10;99.90;;;;;;4949038;28;20118;-62
2022/04/02 01:32:07;;;;;;;26.73;17.75;;;-0.20;99.90;;;;;;4945915;28;20594;-62
2022/04/02 01:34:35;;;;;;;27.30;19.30;;;-0.20;99.90;;;;;;4945525;28;20070;-62
2022/04/02 01:37:15;;;;;;;25.90;18.20;;;-0.10;99.90;;;;;;4945075;28;20088;-61
2022/04/02 01:39:46;;;;;;;31.20;20.60;;;-0.20;99.90;;;;;;4938400;28;20504;-62
2022/04/02 01:42:20;;;;;;;28.15;20.17;;;-0.20;99.90;;;;;;4926362;28;20223;-61
2022/04/02 01:44:56;;;;;;;28.77;20.33;;;-0.20;99.90;;;;;;4928698;28;20602;-61
2022/04/02 01:47:35;;;;;;;30.52;20.70;;;-0.10;99.90;;;;;;4925024;28;20323;-61
2022/04/02 01:50:05;;;;;;;24.00;17.77;;;-0.20;99.90;;;;;;4925468;28;20060;-61
2022/04/02 01:52:36;;;;;;;25.13;17.77;;;-0.20;99.90;;;;;;4925251;28;20745;-62
2022/04/02 01:55:08;;;;;;;27.30;18.67;;;-0.20;99.90;;;;;;4925312;28;20222;-61
2022/04/02 01:57:37;;;;;;;28.77;20.27;;;-0.20;99.90;;;;;;4924791;28;20061;-61
2022/04/02 02:00:07;;;;;;;28.50;19.08;;;-0.20;99.90;;;;;;4925267;28;20576;-62
2022/04/02 02:02:40;;;;;;;28.42;19.80;;;-0.20;99.90;;;;;;4927186;28;20290;-60
2022/04/02 02:05:09;;;;;;;25.83;18.70;;;-0.20;99.90;;;;;;4929354;28;20200;-62
2022/04/02 02:07:36;;;;;;;25.35;17.88;;;-0.20;99.90;;;;;;4928240;28;20612;-61
2022/04/02 02:10:03;;;;;;;26.45;18.85;;;-0.20;99.90;;;;;;4909611;28;20141;-61
2022/04/02 02:13:00;;;;;;;26.55;18.42;;;-0.20;99.90;;;;;;4934369;28;20366;-61
2022/04/02 02:15:34;;;;;;;27.83;19.00;;;-0.20;99.90;;;;;;4924758;28;20442;-62
2022/04/02 02:18:04;;;;;;;24.38;17.52;;;-0.20;99.90;;;;;;4924424;28;20559;-61
2022/04/02 02:20:31;;;;;;;24.67;16.63;;;-0.20;99.90;;;;;;4924623;28;20495;-61
2022/04/02 02:22:58;;;;;;;22.60;16.67;;;-0.30;99.90;;;;;;4912547;28;20050;-62
2022/04/02 02:25:26;;;;;;;22.80;15.60;;;-0.30;99.90;;;;;;4929144;28;20181;-61
2022/04/02 02:27:53;;;;;;;27.35;18.52;;;-0.30;99.90;;;;;;4893281;28;20043;-62
2022/04/02 02:30:22;;;;;;;24.50;17.60;;;-0.30;99.90;;;;;;4909948;28;20097;-61
2022/04/02 02:35:49;;;;;;;22.05;15.30;;;-0.30;99.90;;;;;;4913614;28;20285;-62
2022/04/02 02:35:49;;;;;;;24.27;16.92;;;-0.30;99.90;;;;;;4929514;28;20322;-62
2022/04/02 02:38:21;;;;;;;23.80;16.25;;;-0.30;99.90;;;;;;4928299;28;20530;-62
2022/04/02 02:40:58;;;;;;;24.55;17.80;;;-0.30;99.90;;;;;;4929319;28;20094;-61
2022/04/02 02:43:32;;;;;;;23.10;17.10;;;-0.30;99.90;;;;;;4930320;28;20326;-62
2022/04/02 02:46:14;;;;;;;21.52;15.07;;;-0.30;99.90;;;;;;4929361;28;20402;-62
2022/04/02 02:48:43;;;;;;;21.67;15.73;;;-0.30;99.90;;;;;;4928208;28;20046;-61
2022/04/02 02:51:12;;;;;;;20.88;14.73;;;-0.30;99.90;;;;;;4928873;28;20050;-62
2022/04/02 02:53:40;;;;;;;23.10;15.13;;;-0.40;99.90;;;;;;4928331;28;20249;-62
2022/04/02 02:56:07;;;;;;;22.33;16.38;;;-0.40;99.90;;;;;;4927757;28;20647;-62
2022/04/02 02:58:34;;;;;;;21.85;15.60;;;-0.40;99.90;;;;;;4930385;28;20065;-63
2022/04/02 03:01:01;;;;;;;19.42;14.98;;;-0.40;99.90;;;;;;4912664;28;20735;-62
2022/04/02 03:03:31;;;;;;;20.15;15.13;;;-0.30;99.90;;;;;;4924914;28;20382;-62
2022/04/02 03:06:00;;;;;;;22.27;15.85;;;-0.30;99.90;;;;;;4908948;28;20403;-62
2022/04/02 03:08:34;;;;;;;20.77;15.20;;;-0.40;99.90;;;;;;4924863;28;20303;-62
2022/04/02 03:11:01;;;;;;;22.40;14.95;;;-0.40;99.90;;;;;;4909020;28;20051;-63
2022/04/02 03:13:32;;;;;;;18.42;13.93;;;-0.40;99.90;;;;;;4909259;28;20046;-62
2022/04/02 03:16:06;;;;;;;20.95;15.77;;;-0.40;99.90;;;;;;4924080;28;20055;-63
2022/04/02 03:18:39;;;;;;;22.77;16.48;;;-0.40;99.90;;;;;;4931840;28;20388;-63
2022/04/02 03:21:09;;;;;;;20.38;15.10;;;-0.40;99.90;;;;;;4928237;28;20047;-62
2022/04/02 03:23:37;;;;;;;21.50;16.10;;;-0.40;99.90;;;;;;4928863;28;20266;-62
2022/04/02 03:26:04;;;;;;;21.48;14.55;;;-0.40;99.90;;;;;;4912940;28;20050;-63
2022/04/02 03:28:37;;;;;;;22.50;15.68;;;-0.40;99.90;;;;;;4927234;28;20625;-63
2022/04/02 03:31:04;;;;;;;22.27;15.52;;;-0.40;99.90;;;;;;4928637;28;20421;-64
2022/04/02 03:33:34;;;;;;;22.30;16.27;;;-0.40;99.90;;;;;;4928030;28;20385;-63
2022/04/02 03:36:04;;;;;;;21.77;16.23;;;-0.40;99.90;;;;;;4931229;28;20153;-63
2022/04/02 03:38:31;;;;;;;22.58;15.40;;;-0.40;99.90;;;;;;4930096;28;20072;-63
2022/04/02 03:41:04;;;;;;;24.33;16.73;;;-0.40;99.90;;;;;;4930140;28;20359;-62
2022/04/02 03:43:32;;;;;;;20.73;15.55;;;-0.50;99.90;;;;;;4926504;28;20227;-63
2022/04/02 03:48:47;;;;;;;23.23;15.93;;;-0.50;99.90;;;;;;4927518;28;20450;-63
2022/04/02 03:51:14;;;;;;;21.75;16.35;;;-0.50;99.90;;;;;;4929220;28;20191;-62
2022/04/02 03:53:46;;;;;;;21.63;15.18;;;-0.50;99.90;;;;;;4928509;28;20817;-63
2022/04/02 03:56:15;;;;;;;20.48;14.07;;;-0.50;99.90;;;;;;4926610;28;20409;-63
2022/04/02 03:58:51;;;;;;;18.50;13.50;;;-0.50;99.90;;;;;;4926974;28;20533;-63
2022/04/02 04:01:17;;;;;;;18.88;12.90;;;-0.50;99.90;;;;;;4927931;28;20054;-63
2022/04/02 04:03:46;;;;;;;21.27;16.10;;;-0.50;99.90;;;;;;4927616;28;20326;-63
2022/04/02 04:06:14;;;;;;;23.95;16.00;;;-0.50;99.90;;;;;;4927557;28;20128;-64
2022/04/02 04:08:41;;;;;;;22.20;16.15;;;-0.50;99.90;;;;;;4930330;28;20753;-64
2022/04/02 04:11:14;;;;;;;21.80;15.52;;;-0.50;99.90;;;;;;4927422;28;20042;-64
2022/04/02 04:13:42;;;;;;;20.02;14.90;;;-0.50;99.90;;;;;;4927217;28;20053;-63
2022/04/02 04:16:09;;;;;;;19.60;14.73;;;-0.50;99.90;;;;;;4927973;28;20231;-63
2022/04/02 04:18:39;;;;;;;20.75;14.93;;;-0.50;99.90;;;;;;4911284;28;20047;-64
2022/04/02 04:21:06;;;;;;;19.67;14.27;;;-0.50;99.90;;;;;;4927550;28;20458;-64
2022/04/02 04:23:34;;;;;;;23.48;16.23;;;-0.50;99.90;;;;;;4926499;28;20439;-64
2022/04/02 04:26:04;;;;;;;20.90;14.32;;;-0.50;99.90;;;;;;4927751;28;20046;-64
2022/04/02 04:28:38;;;;;;;19.65;14.52;;;-0.50;99.90;;;;;;4914459;28;20362;-65
2022/04/02 04:31:05;;;;;;;22.48;15.70;;;-0.50;99.90;;;;;;4927427;28;20497;-64
2022/04/02 04:33:34;;;;;;;21.20;14.75;;;-0.50;99.90;;;;;;4930739;28;20290;-65
2022/04/02 04:36:02;;;;;;;21.77;15.32;;;-0.50;99.90;;;;;;4929324;28;20050;-64
2022/04/02 04:38:30;;;;;;;21.77;15.95;;;-0.50;99.90;;;;;;4926618;28;20474;-64
2022/04/02 04:41:02;;;;;;;17.40;13.00;;;-0.40;99.90;;;;;;4928694;28;20132;-64
2022/04/02 04:43:30;;;;;;;18.98;14.45;;;-0.50;99.90;;;;;;4927384;28;20696;-64
2022/04/02 04:45:57;;;;;;;19.85;14.80;;;-0.40;99.90;;;;;;4927137;28;20280;-64
2022/04/02 04:48:26;;;;;;;19.50;14.88;;;-0.40;99.90;;;;;;4926352;28;20708;-65
2022/04/02 04:50:57;;;;;;;20.23;15.00;;;-0.50;99.90;;;;;;4926573;28;20418;-65
2022/04/02 04:53:26;;;;;;;20.05;14.13;;;-0.50;99.90;;;;;;4927261;28;20240;-66
2022/04/02 04:55:55;;;;;;;21.08;14.15;;;-0.50;99.90;;;;;;4926516;28;20050;-64
2022/04/02 04:58:23;;;;;;;19.52;14.20;;;-0.50;99.90;;;;;;4911422;28;20267;-66
2022/04/02 05:00:56;;;;;;;19.23;14.57;;;-0.50;99.90;;;;;;4928717;28;20552;-56
2022/04/02 05:03:24;;;;;;;19.65;14.48;;;-0.50;99.90;;;;;;4927883;28;20414;-57
2022/04/02 05:05:53;;;;;;;20.33;14.43;;;-0.50;99.90;;;;;;4927774;28;20057;-58
2022/04/02 05:08:25;;;;;;;19.75;13.38;;;-0.50;99.90;;;;;;4911259;28;20991;-58
2022/04/02 05:10:59;;;;;;;16.25;12.18;;;-0.50;99.90;;;;;;4913487;28;20671;-58
2022/04/02 05:13:33;;;;;;;18.65;14.02;;;-0.50;99.90;;;;;;4930820;28;20043;-58
2022/04/02 05:16:01;;;;;;;20.60;14.32;;;-0.50;99.90;;;;;;4911673;28;20980;-57
2022/04/02 05:18:31;;;;;;;21.42;15.30;;;-0.50;99.90;;;;;;4926806;28;20047;-58
2022/04/02 05:20:58;;;;;;;22.50;17.00;;;-0.40;99.90;;;;;;4929067;28;20402;-58
2022/04/02 05:23:27;;;;;;;19.33;14.65;;;-0.40;99.90;;;;;;4927996;28;20320;-59
2022/04/02 05:25:55;;;;;;;20.77;16.33;;;-0.40;99.90;;;;;;4927552;28;20056;-60
2022/04/02 05:28:25;;;;;;;22.00;15.68;;;-0.40;99.90;;;;;;4926874;28;20117;-59
2022/04/02 05:30:53;;;;;;;25.40;18.17;;;-0.40;99.90;;;;;;4928924;28;20039;-58
2022/04/02 05:33:21;;;;;;;26.25;17.73;;;-0.40;99.90;;;;;;4931435;28;20112;-58
2022/04/02 05:36:06;;;;;;;24.63;16.90;;;-0.40;99.90;;;;;;4927925;28;20113;-59
2022/04/02 05:38:33;;;;;;;23.63;16.20;;;-0.40;99.90;;;;;;4927375;28;20598;-59
2022/04/02 05:41:00;;;;;;;31.40;19.60;;;-0.40;99.90;;;;;;4928920;28;20543;-58
2022/04/02 05:43:27;;;;;;;36.15;22.52;;;-0.40;99.90;;;;;;4927056;28;20262;-59
2022/04/02 05:45:54;;;;;;;26.42;17.02;;;-0.40;99.90;;;;;;4927184;28;20046;-58
2022/04/02 05:48:21;;;;;;;24.17;16.60;;;-0.40;99.90;;;;;;4927796;28;20773;-59
2022/04/02 05:50:49;;;;;;;28.45;19.02;;;-0.40;99.90;;;;;;4926855;28;20042;-59
2022/04/02 05:53:17;;;;;;;35.85;21.80;;;-0.40;99.90;;;;;;4928760;28;20043;-58
2022/04/02 05:55:45;;;;;;;32.38;21.45;;;-0.40;99.90;;;;;;4927648;28;20376;-58
2022/04/02 05:58:12;;;;;;;32.22;19.33;;;-0.40;99.90;;;;;;4927127;28;20555;-57
2022/04/02 06:00:40;;;;;;;28.20;20.50;;;-0.40;99.90;;;;;;4930487;28;20547;-59
2022/04/02 06:03:07;;;;;;;29.40;20.25;;;-0.40;99.90;;;;;;4911351;28;20042;-58
2022/04/02 06:05:35;;;;;;;27.52;18.80;;;-0.30;99.90;;;;;;4932939;28;20280;-56
2022/04/02 06:08:02;;;;;;;22.13;16.27;;;-0.30;99.90;;;;;;4927264;28;20026;-55
2022/04/02 06:10:29;;;;;;;26.08;19.25;;;-0.30;99.90;;;;;;4928413;28;20042;-56
2022/04/02 06:12:56;;;;;;;25.27;17.85;;;-0.20;99.90;;;;;;4930375;28;20046;-55
2022/04/02 06:15:24;;;;;;;26.65;18.55;;;-0.20;99.90;;;;;;4941557;28;20264;-56
2022/04/02 06:17:51;;;;;;;23.77;17.92;;;-0.20;99.90;;;;;;4931696;28;20042;-56
2022/04/02 06:20:19;;;;;;;26.67;18.85;;;-0.10;99.90;;;;;;4943955;28;20042;-56
2022/04/02 06:22:46;;;;;;;28.67;19.33;;;-0.10;99.90;;;;;;4945731;28;20469;-55
2022/04/02 06:25:13;;;;;;;24.73;18.13;;;-0.10;99.90;;;;;;4948792;28;20038;-56
2022/04/02 06:27:44;;;;;;;29.25;19.98;;;0.00;99.90;;;;;;4946498;28;20045;-57
2022/04/02 06:30:12;;;;;;;28.02;19.98;;;0.00;99.90;;;;;;4948518;28;20780;-57
2022/04/02 06:32:40;;;;;;;23.02;17.95;;;0.00;99.90;;;;;;4946028;28;20053;-55
2022/04/02 06:35:09;;;;;;;23.13;16.73;;;0.00;99.90;;;;;;4945073;28;20192;-56
2022/04/02 06:37:39;;;;;;;24.23;16.85;;;0.00;99.90;;;;;;4925729;28;20820;-55
2022/04/02 06:40:11;;;;;;;22.42;17.17;;;0.00;99.90;;;;;;4929274;28;20543;-54
2022/04/02 06:42:38;;;;;;;23.75;15.80;;;0.00;99.90;;;;;;4930086;28;20897;-55
2022/04/02 06:45:11;;;;;;;19.90;14.93;;;0.00;99.90;;;;;;4928779;28;20066;-56
2022/04/02 06:47:38;;;;;;;19.25;14.98;;;0.00;99.90;;;;;;4932717;28;20046;-55
2022/04/02 06:50:09;;;;;;;21.67;15.18;;;0.00;99.90;;;;;;4929070;28;20587;-56
2022/04/02 06:52:38;;;;;;;22.15;15.80;;;0.00;99.90;;;;;;4930877;28;20847;-56
2022/04/02 06:55:08;;;;;;;19.63;14.32;;;0.10;99.90;;;;;;4927819;28;20042;-55
2022/04/02 06:57:55;;;;;;;19.95;14.35;;;0.10;99.90;;;;;;4932576;28;20128;-57
2022/04/02 07:00:23;;;;;;;16.35;12.60;;;0.10;99.90;;;;;;4928052;28;20050;-56
2022/04/02 07:02:50;;;;;;;19.25;13.95;;;0.20;99.90;;;;;;4928490;28;20053;-56
2022/04/02 07:05:21;;;;;;;19.60;14.15;;;0.20;99.90;;;;;;4932083;28;20485;-55
2022/04/02 07:07:51;;;;;;;16.40;12.80;;;0.20;99.90;;;;;;4916841;28;20122;-56
2022/04/02 07:10:20;;;;;;;16.67;12.27;;;0.20;99.90;;;;;;4931105;28;20116;-58
2022/04/02 07:12:47;;;;;;;14.23;11.32;;;0.20;99.90;;;;;;4927902;28;20283;-58
2022/04/02 07:15:14;;;;;;;15.60;11.13;;;0.20;99.90;;;;;;4930968;28;20038;-56
2022/04/02 07:17:42;;;;;;;16.15;10.85;;;0.20;99.90;;;;;;4927684;28;20223;-56
2022/04/02 07:20:11;;;;;;;17.55;12.40;;;0.20;99.90;;;;;;4931953;28;20815;-55
2022/04/02 07:22:41;;;;;;;17.20;12.80;;;0.30;99.90;;;;;;4931876;28;20067;-56
2022/04/02 07:25:09;;;;;;;17.20;13.32;;;0.30;99.90;;;;;;4931442;28;20038;-58
2022/04/02 07:27:38;;;;;;;17.83;12.95;;;0.30;99.90;;;;;;4931422;28;20641;-58
2022/04/02 07:30:07;;;;;;;19.33;14.35;;;0.40;99.90;;;;;;4929960;28;20046;-54
2022/04/02 07:32:34;;;;;;;21.25;13.70;;;0.40;99.90;;;;;;4933714;28;20089;-56
2022/04/02 07:35:01;;;;;;;;;;;0.40;99.90;;;;;;4932361;28;21144;-55
2022/04/02 07:38:02;;;;;;;20.50;13.68;;;0.40;99.90;;;;;;4932520;28;19932;-55
2022/04/02 07:40:41;;;;;;;18.98;13.07;;;0.50;99.90;;;;;;4929986;28;20618;-55
2022/04/02 07:43:36;;;;;;;18.15;13.48;;;0.50;99.90;;;;;;4932966;28;20385;-51
2022/04/02 07:46:11;;;;;;;21.20;15.38;;;0.50;99.90;;;;;;4929148;28;21087;-56
2022/04/02 07:48:41;;;;;;;20.63;14.93;;;0.60;99.90;;;;;;4932257;28;20216;-55
2022/04/02 07:51:13;;;;;;;20.77;15.40;;;0.60;99.90;;;;;;4930546;28;20251;-54
2022/04/02 07:53:47;;;;;;;22.20;16.58;;;0.60;99.90;;;;;;4928473;28;20552;-55
2022/04/02 07:56:19;;;;;;;23.48;15.07;;;0.60;99.90;;;;;;4930644;28;20590;-56
2022/04/02 07:58:51;;;;;;;20.35;16.23;;;0.60;99.90;;;;;;4927640;28;20062;-55
2022/04/02 08:01:19;;;;;;;21.40;14.35;;;0.60;99.90;;;;;;4932630;28;20548;-55
2022/04/02 08:03:48;;;;;;;22.88;15.27;;;0.60;99.90;;;;;;4913050;28;20113;-56
2022/04/02 08:06:19;;;;;;;19.90;15.10;;;0.60;99.90;;;;;;4931761;28;20057;-55
2022/04/02 08:08:47;;;;;;;22.23;15.60;;;0.70;99.90;;;;;;4931256;28;20137;-56
2022/04/02 08:11:17;;;;;;;18.23;14.02;;;0.70;99.90;;;;;;4929928;28;20293;-56
2022/04/02 08:13:46;;;;;;;19.45;13.82;;;0.70;99.90;;;;;;4913612;28;20349;-55
2022/04/02 08:16:13;;;;;;;19.77;14.55;;;0.80;99.90;;;;;;4931910;28;20039;-58
2022/04/02 08:18:41;;;;;;;24.05;15.30;;;0.90;99.90;;;;;;4930923;28;20590;-53
2022/04/02 08:21:16;;;;;;;21.73;15.38;;;1.00;99.90;;;;;;4930460;28;20462;-55
2022/04/02 08:23:43;;;;;;;20.80;15.15;;;1.00;99.90;;;;;;4932964;28;20335;-58
2022/04/02 08:26:45;;;;;;;18.70;14.48;;;1.10;99.90;;;;;;4938219;28;20145;-56
2022/04/02 08:29:58;;;;;;;21.13;15.80;;;1.10;99.90;;;;;;4947136;28;20050;-58
2022/04/02 08:32:36;;;;;;;19.88;14.57;;;1.10;99.90;;;;;;4949732;28;20581;-58
2022/04/02 08:35:09;;;;;;;18.27;13.48;;;1.10;99.90;;;;;;4949140;28;20864;-58
2022/04/02 08:38:09;;;;;;;24.52;15.20;;;1.10;99.90;;;;;;4949694;28;20052;-57
2022/04/02 08:40:46;;;;;;;15.65;12.40;;;1.10;99.90;;;;;;4932713;28;20078;-58
2022/04/02 08:43:45;;;;;;;17.20;12.93;;;1.00;99.90;;;;;;4931496;28;20236;-57
2022/04/02 08:46:33;;;;;;;13.60;9.80;;;1.00;99.90;;;;;;4932038;28;20038;-59
2022/04/02 08:49:41;;;;;;;11.85;9.38;;;1.00;99.90;;;;;;4931857;28;20796;-55
2022/04/02 08:52:15;;;;;;;11.05;8.55;;;1.00;99.90;;;;;;4940489;28;20039;-55
2022/04/02 08:55:07;;;;;;;11.30;9.20;;;1.00;99.90;;;;;;4927418;28;20224;-55
2022/04/02 08:57:52;;;;;;;13.35;9.30;;;1.00;99.90;;;;;;4928620;28;20559;-54
2022/04/02 09:00:25;;;;;;;11.45;8.70;;;1.00;99.90;;;;;;4928766;28;20882;-55
2022/04/02 09:03:30;;;;;;;11.60;9.05;;;1.00;99.90;;;;;;4930325;28;20050;-54
2022/04/02 09:06:25;;;;;;;11.85;9.48;;;1.00;99.90;;;;;;4931925;28;20161;-55
2022/04/02 09:09:12;;;;;;;12.63;9.45;;;1.10;99.90;;;;;;4932322;28;20348;-55
2022/04/02 09:11:51;;;;;;;11.93;9.90;;;1.20;99.90;;;;;;4951406;28;20555;-59
2022/04/02 09:14:29;;;;;;;13.88;10.60;;;1.20;99.90;;;;;;4950864;28;20041;-55
2022/04/02 09:17:02;;;;;;;15.63;10.52;;;1.30;99.90;;;;;;4928595;28;20229;-54
2022/04/02 09:19:46;;;;;;;11.10;8.40;;;1.30;99.90;;;;;;4931976;28;20050;-54
2022/04/02 09:22:37;;;;;;;14.02;9.60;;;1.40;99.90;;;;;;4931313;28;20042;-55
2022/04/02 09:25:52;;;;;;;11.68;9.70;;;1.40;99.90;;;;;;4930988;28;20054;-59
2022/04/02 09:28:43;;;;;;;11.55;8.75;;;1.30;99.90;;;;;;4927055;28;20219;-55
2022/04/02 09:32:02;;;;;;;15.60;10.45;;;1.30;99.90;;;;;;4930569;28;20042;-55
2022/04/02 09:34:54;;;;;;;15.32;10.27;;;1.20;99.90;;;;;;4930669;28;20046;-53
2022/04/02 09:37:52;;;;;;;14.00;11.50;;;1.10;99.90;;;;;;4929915;28;20581;-54
2022/04/02 09:40:30;;;;;;;17.58;11.93;;;1.00;99.90;;;;;;4927018;28;20045;-56
2022/04/02 09:43:07;;;;;;;18.70;12.38;;;1.00;99.90;;;;;;4930800;28;20181;-56
2022/04/02 09:45:52;;;;;;;21.42;12.75;;;1.00;99.90;;;;;;4930793;28;20049;-54
2022/04/02 09:48:30;;;;;;;17.33;11.68;;;1.00;99.90;;;;;;4928219;28;20785;-55
2022/04/02 09:50:57;;;;;;;17.13;11.10;;;1.00;99.90;;;;;;4931514;28;20113;-57
2022/04/02 09:53:27;;;;;;;17.02;12.55;;;1.00;99.90;;;;;;4928648;28;20346;-57
2022/04/02 09:56:20;;;;;;;13.35;10.15;;;1.00;99.90;;;;;;4930421;28;20045;-56
2022/04/02 09:59:04;;;;;;;16.38;10.45;;;1.10;99.90;;;;;;4927855;28;20590;-56
2022/04/02 10:01:37;;;;;;;15.18;10.90;;;1.10;99.90;;;;;;4929048;28;20836;-58
2022/04/02 10:04:27;;;;;;;13.60;11.02;;;1.20;99.90;;;;;;4928841;28;20042;-57
2022/04/02 10:06:56;;;;;;;17.55;10.60;;;1.20;99.90;;;;;;4926769;28;20074;-57
2022/04/02 10:09:30;;;;;;;14.90;10.35;;;1.30;99.90;;;;;;4928927;28;20189;-58
2022/04/02 10:11:59;;;;;;;10.98;9.43;;;1.30;99.90;;;;;;4928912;28;20786;-57
2022/04/02 10:14:29;;;;;;;12.73;9.75;;;1.30;99.90;;;;;;4931112;28;20585;-56
2022/04/02 10:17:00;;;;;;;16.85;10.18;;;1.30;99.90;;;;;;4926990;28;20544;-58
2022/04/02 10:19:29;;;;;;;14.85;11.38;;;1.30;99.90;;;;;;4930975;28;20564;-56
2022/04/02 10:22:18;;;;;;;14.20;10.20;;;1.20;99.90;;;;;;4930303;28;20046;-57
2022/04/02 10:24:53;;;;;;;13.35;10.63;;;1.10;99.90;;;;;;4930332;28;20552;-56
2022/04/02 10:27:34;;;;;;;14.73;11.25;;;1.10;99.90;;;;;;4928425;28;20038;-57
2022/04/02 10:30:01;;;;;;;14.52;11.85;;;1.10;99.90;;;;;;4929559;28;20038;-58
2022/04/02 10:32:40;;;;;;;16.92;12.32;;;1.10;99.90;;;;;;4929853;28;20910;-56
2022/04/02 10:35:10;;;;;;;16.75;12.68;;;1.10;99.90;;;;;;4930160;28;20051;-56
2022/04/02 10:38:01;;;;;;;17.50;12.10;;;1.10;99.90;;;;;;4930373;28;20402;-56
2022/04/02 10:40:31;;;;;;;15.85;11.43;;;1.10;99.90;;;;;;4927409;28;20046;-57
2022/04/02 10:43:06;;;;;;;18.58;12.48;;;1.20;99.90;;;;;;4928647;28;20571;-57
2022/04/02 10:45:36;;;;;;;16.40;11.23;;;1.20;99.90;;;;;;4929644;28;20050;-57
2022/04/02 10:48:12;;;;;;;15.30;11.25;;;1.20;99.90;;;;;;4928556;28;20117;-57
2022/04/02 10:50:43;;;;;;;15.50;11.73;;;1.20;99.90;;;;;;4929207;28;20035;-58
2022/04/02 10:53:13;;;;;;;15.52;11.40;;;1.10;99.90;;;;;;4914095;28;20859;-56
2022/04/02 10:55:47;;;;;;;14.00;11.23;;;1.10;99.90;;;;;;4934179;28;20180;-56
2022/04/02 10:58:14;;;;;;;18.50;12.45;;;1.10;99.90;;;;;;4931358;28;20042;-56
2022/04/02 11:00:45;;;;;;;13.93;12.30;;;1.20;99.90;;;;;;4936801;28;20341;-57
2022/04/02 11:03:27;;;;;;;16.45;11.90;;;1.20;99.90;;;;;;4932436;28;20727;-56
2022/04/02 11:05:54;;;;;;;16.33;11.52;;;1.20;99.90;;;;;;4934121;28;20053;-57
2022/04/02 11:08:22;;;;;;;16.98;12.68;;;1.20;99.90;;;;;;4928998;28;20046;-57
2022/04/02 11:10:49;;;;;;;14.73;12.68;;;1.20;99.90;;;;;;4933763;28;20343;-58
2022/04/02 11:13:32;;;;;;;18.70;13.77;;;1.20;99.90;;;;;;4946872;28;20038;-57
2022/04/02 11:15:59;;;;;;;15.23;12.30;;;1.20;99.90;;;;;;4938274;28;20057;-56
2022/04/02 11:18:26;;;;;;;16.42;12.80;;;1.20;99.90;;;;;;4931011;28;20216;-57
2022/04/02 11:21:04;;;;;;;15.30;12.00;;;1.30;99.90;;;;;;4933898;28;20046;-58
2022/04/02 11:24:01;;;;;;;20.38;11.52;;;1.30;99.90;;;;;;4932403;28;20061;-58
2022/04/02 11:26:30;;;;;;;14.90;11.63;;;1.30;99.90;;;;;;4931431;28;20409;-58
2022/04/02 11:29:03;;;;;;;14.95;11.13;;;1.30;99.90;;;;;;4932549;28;20355;-57
2022/04/02 11:31:30;;;;;;;14.50;11.75;;;1.30;99.90;;;;;;4930985;28;20062;-57
2022/04/02 11:34:10;;;;;;;13.32;11.30;;;1.30;99.90;;;;;;4933373;28;20046;-57
2022/04/02 11:36:46;;;;;;;17.27;11.13;;;1.30;99.90;;;;;;4933077;28;20241;-56
2022/04/02 11:39:25;;;;;;;14.32;10.60;;;1.30;99.90;;;;;;4931767;28;20847;-57
2022/04/02 11:41:57;;;;;;;15.02;10.80;;;1.30;99.90;;;;;;4931172;28;20053;-57
2022/04/02 11:44:36;;;;;;;15.10;12.32;;;1.30;99.90;;;;;;4933841;28;20046;-55
2022/04/02 11:47:06;;;;;;;13.93;11.27;;;1.30;99.90;;;;;;4932005;28;20367;-57
2022/04/02 11:49:40;;;;;;;12.80;11.32;;;1.20;99.90;;;;;;4933444;28;20382;-57
2022/04/02 11:52:08;;;;;;;13.52;10.68;;;1.20;99.90;;;;;;4933276;28;20579;-56
2022/04/02 11:54:59;;;;;;;14.05;11.68;;;1.20;99.90;;;;;;4933320;28;20145;-56
2022/04/02 11:57:27;;;;;;;18.38;11.48;;;1.20;99.90;;;;;;4929367;28;20236;-57
2022/04/02 12:00:01;;;;;;;12.95;11.30;;;1.20;99.90;;;;;;4932479;28;20046;-56
2022/04/02 12:02:41;;;;;;;13.73;11.15;;;1.20;99.90;;;;;;4930299;28;20501;-57
2022/04/02 12:05:11;;;;;;;13.10;10.60;;;1.30;99.90;;;;;;4930777;28;20057;-56
2022/04/02 12:07:41;;;;;;;13.82;10.50;;;1.30;99.90;;;;;;4930967;28;20046;-56
2022/04/02 12:10:29;;;;;;;13.35;10.93;;;1.30;99.90;;;;;;4929542;28;20039;-57
2022/04/02 12:12:58;;;;;;;13.80;10.88;;;1.40;99.90;;;;;;4929328;28;20058;-57
2022/04/02 12:15:26;;;;;;;12.88;10.70;;;1.40;99.90;;;;;;4932362;28;20320;-58
2022/04/02 12:18:01;;;;;;;13.68;11.85;;;1.40;99.90;;;;;;4931015;28;20877;-57
2022/04/02 12:20:39;;;;;;;15.20;11.25;;;1.50;99.90;;;;;;4931346;28;20132;-57
2022/04/02 12:23:19;;;;;;;12.98;10.05;;;1.50;99.90;;;;;;4933754;28;20268;-57
2022/04/02 12:25:59;;;;;;;15.63;11.23;;;1.50;99.90;;;;;;4933975;28;20049;-56
2022/04/02 12:28:26;;;;;;;14.15;9.95;;;1.40;99.90;;;;;;4932280;28;20046;-57
2022/04/02 12:31:02;;;;;;;13.85;10.07;;;1.40;99.90;;;;;;4932020;28;20050;-57
2022/04/02 12:33:29;;;;;;;10.73;9.52;;;1.30;99.90;;;;;;4931734;28;20121;-57
2022/04/02 12:36:06;;;;;;;14.50;11.00;;;1.30;99.90;;;;;;4930237;28;20800;-56
2022/04/02 12:38:39;;;;;;;11.82;10.18;;;1.20;99.90;;;;;;4930942;28;20145;-57
2022/04/02 12:41:28;;;;;;;12.48;10.25;;;1.10;99.90;;;;;;4930290;28;20077;-55
2022/04/02 12:44:01;;;;;;;11.38;9.07;;;1.10;99.90;;;;;;4932158;28;20773;-56
2022/04/02 12:46:29;;;;;;;14.70;8.75;;;1.10;99.90;;;;;;4931726;28;20229;-56
2022/04/02 12:48:57;;;;;;;13.82;9.48;;;1.10;99.90;;;;;;4927901;28;20370;-56
2022/04/02 12:51:25;;;;;;;12.98;10.15;;;1.10;99.90;;;;;;4932694;28;20544;-57
2022/04/02 12:54:01;;;;;;;14.15;10.50;;;1.10;99.90;;;;;;4928829;28;20542;-56
2022/04/02 12:56:33;;;;;;;15.77;11.32;;;1.10;99.90;;;;;;4931801;28;20053;-55
2022/04/02 12:59:17;;;;;;;14.82;11.05;;;1.10;99.90;;;;;;4929031;28;20108;-57
2022/04/02 13:01:47;;;;;;;13.63;11.02;;;1.10;99.90;;;;;;4914281;28;20050;-56
2022/04/02 13:04:20;;;;;;;13.40;9.55;;;1.10;99.90;;;;;;4933276;28;20283;-57